createdAt,value
2023-05-01T00:01:38.828Z,98566.06
2023-05-01T00:04:40.822Z,98574.75
2023-05-01T00:07:42.720Z,98578.75
2023-05-01T00:10:44.645Z,98589.59
2023-05-01T00:13:46.701Z,98596.09
2023-05-01T00:16:48.565Z,98594.94
2023-05-01T00:19:54.447Z,98610.78
2023-05-01T00:22:57.891Z,98602.78
2023-05-01T00:25:59.679Z,98610.44
2023-05-01T00:29:01.494Z,98609.28
2023-05-01T00:32:05.847Z,98609.13
2023-05-01T00:35:08.225Z,98607.13
2023-05-01T00:38:10.236Z,98604.94
2023-05-01T00:41:12.495Z,98618.63
2023-05-01T00:44:14.696Z,98624.47
2023-05-01T00:47:16.813Z,98623.63
2023-05-01T00:50:18.775Z,98625.97
2023-05-01T00:53:22.194Z,98625.78
2023-05-01T00:56:25.348Z,98627.78
2023-05-01T00:59:27.269Z,98620.13
2023-05-01T01:02:29.188Z,98622.97
2023-05-01T01:05:35.782Z,98626.81
2023-05-01T01:08:46.196Z,98629.31
2023-05-01T01:12:10.684Z,98631.31
2023-05-01T01:15:50.747Z,98628.97
2023-05-01T01:19:18.234Z,98635.47
2023-05-01T01:22:24.108Z,98629.81
2023-05-01T01:25:45.683Z,98630.47
2023-05-01T01:29:10.994Z,98630.13
2023-05-01T01:32:18.691Z,98633.47
2023-05-01T01:35:24.453Z,98638.13
2023-05-01T01:38:40.852Z,98637.63
2023-05-01T01:41:47.832Z,98637.13
2023-05-01T01:44:53.210Z,98635.81
2023-05-01T01:47:57.477Z,98642.16
2023-05-01T01:51:05.029Z,98638.47
2023-05-01T01:54:08.389Z,98632.47
2023-05-01T01:57:13.168Z,98637.13
2023-05-01T02:00:16.615Z,98637.13
2023-05-01T02:03:23.902Z,98641.16
2023-05-01T02:06:27.099Z,98644.47
2023-05-01T02:09:30.902Z,98640.47
2023-05-01T02:12:34.275Z,98640.47
2023-05-01T02:15:38.228Z,98644.16
2023-05-01T02:18:41.054Z,98641.47
2023-05-01T02:21:44.277Z,98652.66
2023-05-01T02:24:47.432Z,98652.81
2023-05-01T02:28:12.821Z,98656.81
2023-05-01T02:31:14.944Z,98663.16
2023-05-01T02:34:17.151Z,98664.81
2023-05-01T02:37:19.125Z,98669.47
2023-05-01T02:40:22.095Z,98679.16
2023-05-01T02:43:27.911Z,98681.97
2023-05-01T02:46:33.443Z,98680.31
2023-05-01T02:49:36.695Z,98682.16
2023-05-01T02:52:38.854Z,98689.00
2023-05-01T02:55:59.521Z,98698.34
2023-05-01T02:59:02.081Z,98694.50
2023-05-01T03:02:04.354Z,98698.16
2023-05-01T03:05:06.710Z,98706.16
2023-05-01T03:08:08.616Z,98716.81
2023-05-01T03:11:10.590Z,98714.47
2023-05-01T03:14:12.648Z,98718.81
2023-05-01T03:17:14.534Z,98720.31
2023-05-01T03:20:16.536Z,98725.31
2023-05-01T03:23:18.388Z,98724.16
2023-05-01T03:26:20.302Z,98726.00
2023-05-01T03:29:22.209Z,98737.66
2023-05-01T03:32:24.317Z,98733.16
2023-05-01T03:35:27.728Z,98739.66
2023-05-01T03:38:30.897Z,98741.84
2023-05-01T03:41:52.825Z,98741.84
2023-05-01T03:44:59.999Z,98756.16
2023-05-01T03:48:03.179Z,98752.50
2023-05-01T03:51:06.087Z,98758.66
2023-05-01T03:54:09.609Z,98757.66
2023-05-01T03:57:27.592Z,98762.00
2023-05-01T04:00:29.690Z,98766.16
2023-05-01T04:03:31.698Z,98758.34
2023-05-01T04:06:33.733Z,98760.69
2023-05-01T04:09:35.649Z,98769.69
2023-05-01T04:12:37.562Z,98770.22
2023-05-01T04:15:39.518Z,98770.22
2023-05-01T04:18:41.445Z,98772.41
2023-05-01T04:21:43.358Z,98776.25
2023-05-01T04:24:45.752Z,98766.72
2023-05-01T04:27:47.927Z,98780.91
2023-05-01T04:30:50.995Z,98786.91
2023-05-01T04:33:53.810Z,98791.94
2023-05-01T04:36:57.344Z,98787.09
2023-05-01T04:39:59.429Z,98799.94
2023-05-01T04:43:01.987Z,98799.13
2023-05-01T04:46:05.130Z,98796.78
2023-05-01T04:49:08.381Z,98798.94
2023-05-01T04:52:10.822Z,98803.78
2023-05-01T04:55:26.189Z,98811.28
2023-05-01T04:58:37.744Z,98804.09
2023-05-01T05:01:45.463Z,98802.78
2023-05-01T05:04:47.581Z,98799.44
2023-05-01T05:07:49.653Z,98807.25
2023-05-01T05:11:07.355Z,98800.59
2023-05-01T05:14:24.099Z,98802.63
2023-05-01T05:17:26.931Z,98809.28
2023-05-01T05:20:29.004Z,98813.81
2023-05-01T05:23:31.403Z,98818.00
2023-05-01T05:26:33.430Z,98814.34
2023-05-01T05:29:37.855Z,98811.19
2023-05-01T05:32:39.939Z,98821.22
2023-05-01T05:35:42.052Z,98826.72
2023-05-01T05:38:44.088Z,98823.41
2023-05-01T05:41:50.178Z,98827.22
2023-05-01T05:44:52.157Z,98828.91
2023-05-01T05:47:54.107Z,98830.91
2023-05-01T05:50:56.768Z,98822.72
2023-05-01T05:53:59.524Z,98835.75
2023-05-01T05:57:03.811Z,98833.88
2023-05-01T06:00:09.405Z,98834.72
2023-05-01T06:03:23.681Z,98842.41
2023-05-01T06:06:28.386Z,98851.59
2023-05-01T06:09:30.827Z,98842.41
2023-05-01T06:12:34.163Z,98848.25
2023-05-01T06:15:38.483Z,98852.75
2023-05-01T06:18:42.405Z,98842.91
2023-05-01T06:21:45.749Z,98848.09
2023-05-01T06:24:47.858Z,98852.09
2023-05-01T06:27:50.746Z,98863.97
2023-05-01T06:30:54.696Z,98854.44
2023-05-01T06:33:57.816Z,98866.31
2023-05-01T06:37:18.437Z,98870.16
2023-05-01T06:40:20.360Z,98869.78
2023-05-01T06:43:22.523Z,98861.94
2023-05-01T06:46:24.568Z,98865.59
2023-05-01T06:49:26.500Z,98871.47
2023-05-01T06:52:28.608Z,98870.44
2023-05-01T06:55:33.284Z,98875.13
2023-05-01T06:58:35.873Z,98882.47
2023-05-01T07:01:37.849Z,98882.78
2023-05-01T07:04:40.142Z,98886.25
2023-05-01T07:07:47.369Z,98888.28
2023-05-01T07:10:54.173Z,98898.13
2023-05-01T07:13:56.121Z,98889.97
2023-05-01T07:16:58.569Z,98903.00
2023-05-01T07:20:01.717Z,98902.84
2023-05-01T07:23:05.899Z,98907.88
2023-05-01T07:26:09.141Z,98908.38
2023-05-01T07:29:11.867Z,98923.25
2023-05-01T07:32:14.513Z,98917.41
2023-05-01T07:35:16.676Z,98924.59
2023-05-01T07:38:18.548Z,98922.56
2023-05-01T07:41:21.877Z,98924.22
2023-05-01T07:44:23.994Z,98929.25
2023-05-01T07:47:27.686Z,98934.44
2023-05-01T07:50:29.690Z,98942.97
2023-05-01T07:53:32.001Z,98944.13
2023-05-01T07:56:33.944Z,98952.66
2023-05-01T07:59:35.814Z,98952.66
2023-05-01T08:02:37.891Z,98955.66
2023-05-01T08:05:41.717Z,98950.28
2023-05-01T08:08:43.636Z,98952.25
2023-05-01T08:11:45.648Z,98960.28
2023-05-01T08:14:47.603Z,98965.13
2023-05-01T08:17:51.263Z,98965.44
2023-05-01T08:20:53.264Z,98971.56
2023-05-01T08:23:56.436Z,98974.38
2023-05-01T08:26:58.475Z,98978.16
2023-05-01T08:30:00.342Z,98984.66
2023-05-01T08:33:02.311Z,98989.69
2023-05-01T08:36:04.350Z,98993.03
2023-05-01T08:39:06.557Z,98995.53
2023-05-01T08:42:08.701Z,99004.91
2023-05-01T08:45:11.756Z,99002.38
2023-05-01T08:48:16.367Z,99002.34
2023-05-01T08:51:21.283Z,98987.41
2023-05-01T08:54:23.662Z,98998.00
2023-05-01T08:57:27.433Z,98992.69
2023-05-01T09:00:31.218Z,98992.53
2023-05-01T09:03:33.462Z,98997.59
2023-05-01T09:06:36.321Z,98999.75
2023-05-01T09:09:38.144Z,99005.00
2023-05-01T09:12:41.743Z,99011.94
2023-05-01T09:15:44.306Z,99012.50
2023-05-01T09:18:46.797Z,99023.63
2023-05-01T09:21:48.950Z,99021.91
2023-05-01T09:24:50.831Z,99023.19
2023-05-01T09:27:52.839Z,99032.28
2023-05-01T09:30:54.798Z,99034.66
2023-05-01T09:33:58.326Z,99031.53
2023-05-01T09:37:00.312Z,99028.69
2023-05-01T09:40:09.299Z,99039.19
2023-05-01T09:43:11.876Z,99040.78
2023-05-01T09:46:13.945Z,99045.91
2023-05-01T09:49:16.232Z,99044.31
2023-05-01T09:52:18.203Z,99050.91
2023-05-01T09:55:20.532Z,99057.31
2023-05-01T09:58:28.809Z,99055.09
2023-05-01T10:01:41.348Z,99052.69
2023-05-01T10:04:43.616Z,99051.56
2023-05-01T10:08:02.488Z,99049.81
2023-05-01T10:11:05.379Z,99055.81
2023-05-01T10:14:08.880Z,99059.88
2023-05-01T10:17:20.751Z,99059.41
2023-05-01T10:20:22.766Z,99067.84
2023-05-01T10:23:25.550Z,99058.53
2023-05-01T10:26:27.671Z,99063.66
2023-05-01T10:29:31.513Z,99067.34
2023-05-01T10:32:34.350Z,99075.94
2023-05-01T10:35:40.639Z,99076.69
2023-05-01T10:38:48.297Z,99082.78
2023-05-01T10:41:59.260Z,99076.66
2023-05-01T10:45:30.833Z,99087.41
2023-05-01T10:48:39.035Z,99084.91
2023-05-01T10:51:58.911Z,99093.56
2023-05-01T10:55:32.088Z,99094.16
2023-05-01T10:58:40.819Z,99096.25
2023-05-01T11:01:52.174Z,99104.84
2023-05-01T11:04:56.375Z,99102.38
2023-05-01T11:08:30.602Z,99101.50
2023-05-01T11:11:32.428Z,99111.50
2023-05-01T11:14:57.549Z,99115.78
2023-05-01T11:18:04.094Z,99109.94
2023-05-01T11:21:06.483Z,99115.81
2023-05-01T11:24:09.383Z,99113.69
2023-05-01T11:27:13.827Z,99115.66
2023-05-01T11:30:17.420Z,99110.78
2023-05-01T11:33:25.894Z,99116.28
2023-05-01T11:36:28.877Z,99111.38
2023-05-01T11:39:30.766Z,99113.66
2023-05-01T11:42:32.698Z,99120.31
2023-05-01T11:45:38.035Z,99123.84
2023-05-01T11:48:40.181Z,99124.75
2023-05-01T11:51:42.106Z,99126.03
2023-05-01T11:54:48.501Z,99125.84
2023-05-01T11:57:52.428Z,99126.88
2023-05-01T12:00:54.431Z,99128.34
2023-05-01T12:03:56.451Z,99132.72
2023-05-01T12:06:58.532Z,99131.66
2023-05-01T12:10:00.857Z,99133.94
2023-05-01T12:13:04.598Z,99131.84
2023-05-01T12:16:06.880Z,99135.59
2023-05-01T12:19:09.799Z,99145.56
2023-05-01T12:22:11.759Z,99144.53
2023-05-01T12:25:14.524Z,99148.91
2023-05-01T12:28:20.494Z,99146.38
2023-05-01T12:31:23.411Z,99141.81
2023-05-01T12:34:32.462Z,99140.59
2023-05-01T12:37:34.548Z,99152.88
2023-05-01T12:40:36.426Z,99152.47
2023-05-01T12:43:38.423Z,99152.47
2023-05-01T12:46:40.597Z,99146.25
2023-05-01T12:49:42.745Z,99149.56
2023-05-01T12:52:44.674Z,99155.38
2023-05-01T12:55:48.352Z,99154.13
2023-05-01T12:58:52.629Z,99155.56
2023-05-01T13:02:00.475Z,99156.56
2023-05-01T13:05:09.757Z,99160.13
2023-05-01T13:08:11.687Z,99164.03
2023-05-01T13:11:16.321Z,99171.31
2023-05-01T13:14:18.217Z,99175.91
2023-05-01T13:17:29.058Z,99183.00
2023-05-01T13:20:31.623Z,99183.44
2023-05-01T13:23:33.767Z,99181.56
2023-05-01T13:26:36.130Z,99185.53
2023-05-01T13:29:46.395Z,99188.84
2023-05-01T13:32:49.669Z,99191.75
2023-05-01T13:35:51.710Z,99191.97
2023-05-01T13:38:56.307Z,99199.03
2023-05-01T13:41:58.712Z,99198.00
2023-05-01T13:45:03.033Z,99200.13
2023-05-01T13:48:05.417Z,99204.09
2023-05-01T13:51:11.642Z,99198.88
2023-05-01T13:54:14.146Z,99203.03
2023-05-01T13:57:17.429Z,99207.22
2023-05-01T14:00:20.768Z,99211.78
2023-05-01T14:03:22.826Z,99216.38
2023-05-01T14:06:24.824Z,99218.88
2023-05-01T14:09:28.293Z,99224.28
2023-05-01T14:12:31.865Z,99222.00
2023-05-01T14:15:34.139Z,99222.00
2023-05-01T14:18:36.688Z,99225.09
2023-05-01T14:21:42.606Z,99237.28
2023-05-01T14:24:44.492Z,99233.72
2023-05-01T14:27:46.304Z,99233.25
2023-05-01T14:30:49.622Z,99235.53
2023-05-01T14:33:58.670Z,99239.03
2023-05-01T14:37:00.656Z,99244.78
2023-05-01T14:40:03.722Z,99246.44
2023-05-01T14:43:06.134Z,99255.97
2023-05-01T14:46:08.340Z,99256.97
2023-05-01T14:49:11.751Z,99265.19
2023-05-01T14:52:19.645Z,99262.44
2023-05-01T14:55:28.070Z,99252.66
2023-05-01T14:58:30.030Z,99258.91
2023-05-01T15:01:32.446Z,99264.44
2023-05-01T15:04:34.439Z,99266.38
2023-05-01T15:07:36.397Z,99268.03
2023-05-01T15:10:38.775Z,99263.22
2023-05-01T15:13:42.670Z,99268.63
2023-05-01T15:16:44.627Z,99276.53
2023-05-01T15:19:46.671Z,99273.59
2023-05-01T15:22:48.566Z,99277.34
2023-05-01T15:25:50.961Z,99271.56
2023-05-01T15:28:53.067Z,99278.34
2023-05-01T15:32:08.160Z,99278.44
2023-05-01T15:35:14.030Z,99290.84
2023-05-01T15:38:18.740Z,99293.88
2023-05-01T15:41:21.406Z,99293.34
2023-05-01T15:44:23.322Z,99308.63
2023-05-01T15:47:25.271Z,99312.19
2023-05-01T15:50:27.740Z,99317.53
2023-05-01T15:53:29.646Z,99321.66
2023-05-01T15:56:36.761Z,99328.28
2023-05-01T15:59:41.454Z,99330.16
2023-05-01T16:02:44.715Z,99341.88
2023-05-01T16:05:49.542Z,99345.88
2023-05-01T16:08:51.907Z,99353.41
2023-05-01T16:11:53.867Z,99353.69
2023-05-01T16:14:56.220Z,99365.38
2023-05-01T16:17:58.506Z,99370.94
2023-05-01T16:21:01.064Z,99377.53
2023-05-01T16:24:03.117Z,99389.97
2023-05-01T16:27:05.060Z,99386.16
2023-05-01T16:30:08.639Z,99389.03
2023-05-01T16:33:18.804Z,99391.44
2023-05-01T16:36:21.502Z,99403.59
2023-05-01T16:39:23.845Z,99403.63
2023-05-01T16:42:25.879Z,99405.19
2023-05-01T16:45:28.119Z,99409.63
2023-05-01T16:48:31.744Z,99420.94
2023-05-01T16:51:33.661Z,99419.97
2023-05-01T16:54:36.296Z,99424.41
2023-05-01T16:57:38.169Z,99436.59
2023-05-01T17:00:41.336Z,99442.50
2023-05-01T17:03:43.277Z,99437.84
2023-05-01T17:06:45.263Z,99444.28
2023-05-01T17:09:47.174Z,99446.66
2023-05-01T17:12:49.179Z,99457.44
2023-05-01T17:15:52.669Z,99462.50
2023-05-01T17:18:54.735Z,99468.09
2023-05-01T17:21:58.202Z,99476.19
2023-05-01T17:25:02.487Z,99484.63
2023-05-01T17:28:04.420Z,99488.53
2023-05-01T17:31:06.389Z,99497.78
2023-05-01T17:34:08.253Z,99491.91
2023-05-01T17:37:10.220Z,99494.75
2023-05-01T17:40:12.420Z,99501.47
2023-05-01T17:43:14.283Z,99512.56
2023-05-01T17:46:17.117Z,99515.06
2023-05-01T17:49:19.053Z,99508.84
2023-05-01T17:52:21.239Z,99519.22
2023-05-01T17:55:23.192Z,99522.06
2023-05-01T17:58:25.001Z,99523.88
2023-05-01T18:01:27.034Z,99522.19
2023-05-01T18:04:29.626Z,99531.03
2023-05-01T18:07:31.613Z,99533.03
2023-05-01T18:10:34.040Z,99545.41
2023-05-01T18:13:40.011Z,99543.50
2023-05-01T18:16:42.195Z,99547.13
2023-05-01T18:19:44.114Z,99544.03
2023-05-01T18:22:46.045Z,99547.97
2023-05-01T18:25:48.278Z,99557.63
2023-05-01T18:28:50.632Z,99564.63
2023-05-01T18:31:54.715Z,99562.72
2023-05-01T18:34:56.834Z,99565.19
2023-05-01T18:37:58.652Z,99576.81
2023-05-01T18:41:00.578Z,99575.75
2023-05-01T18:44:04.154Z,99574.00
2023-05-01T18:47:06.098Z,99584.63
2023-05-01T18:50:10.114Z,99593.44
2023-05-01T18:53:12.026Z,99600.22
2023-05-01T18:56:13.883Z,99598.31
2023-05-01T18:59:17.212Z,99610.59
2023-05-01T19:02:19.182Z,99608.53
2023-05-01T19:05:22.723Z,99606.31
2023-05-01T19:08:24.719Z,99606.91
2023-05-01T19:11:30.420Z,99611.88
2023-05-01T19:14:32.352Z,99607.13
2023-05-01T19:17:34.273Z,99623.75
2023-05-01T19:20:36.135Z,99620.97
2023-05-01T19:23:39.956Z,99621.41
2023-05-01T19:26:41.835Z,99627.06
2023-05-01T19:29:44.657Z,99625.81
2023-05-01T19:32:46.768Z,99626.53
2023-05-01T19:35:48.673Z,99627.69
2023-05-01T19:38:50.606Z,99637.97
2023-05-01T19:41:53.075Z,99637.22
2023-05-01T19:44:55.010Z,99635.69
2023-05-01T19:47:56.994Z,99644.53
2023-05-01T19:50:58.994Z,99644.13
2023-05-01T19:54:01.533Z,99647.91
2023-05-01T19:57:03.616Z,99647.91
2023-05-01T20:00:07.156Z,99654.38
